Helmut Schreiber

Chefscout - VfB Stuttgart
20 Jan 2028
Donnerstag
Verarbeitung

Persönlichkeit

Anpassungsfähigkeit (1) Ehrgeiz (19) Kontroverse (16) Loyalität (3) Druck (1) Professionalität (17) Fairness (14) Temperament (5)

Profil

Trainerstil Demokratisch
Lizenz Nationale A
Entschlossenheit 10
Menschenführung 12
Motivation 10
Disziplin 14
Arbeitszufriedenheit
100%
Ermüdung
0%
Rolle Chefscout
Gehalt 80.8K p/W
Vertrag 14.03.2028

Leistung

Verhalten Gut
Trainingseffektivität
48%
Spielerentwicklung
40%
Verletzungsprävention
75%
Taktische Umsetzung
75%

Letzte Ereignisse

Vertragsverhandlung begonnen jetzt
Nimmt an Fortbildung teil jetzt
Nahm an einer Scouting-Besprechung teil jetzt
Empfahl ein Transferziel jetzt
Empfahl ein Transferziel jetzt
Legte dem Vorstand ein Dossier vor jetzt
Vertragsverhandlung begonnen jetzt
Nimmt an Fortbildung teil jetzt

Aktuell beobachtet

200
Spieler Verein Status Fähigkeit Vertrauen Beobachtet Zuletzt beobachtet Letzte Stimme
Jofre Torrents Ajax Aktiv 131 / 137 40% 6 10.01.2028 -
Ronan Kpakio Cardiff City Aktiv 120 / 128 40% 6 10.01.2028 -
Esquerdinha Shrewsbury Town Aktiv 121 / 129 40% 3 10.01.2028 -
Vangelis Pavlidis Paris Saint-Germain Verhandlung 152 / 152 67% 1 10.01.2028 Befürworten
Maxime Estève RB Leipzig Verhandlung 145 / 140 86% 1 10.01.2028 Befürworten
Jackson Irvine St. Pauli Verloren 133 / 123 86% 1 06.01.2028 Befürworten
Myles Lewis-Skelly Birmingham Aktiv 151 / 156 40% 6 03.01.2028 -
Leon Grgić Sturm Graz Aktiv 131 / 137 40% 1 03.01.2028 -
Tomás Aranda Boca Juniors Aktiv 114 / 127 40% 2 01.01.2028 -
Estêvão Millwall Aktiv 147 / 154 40% 1 01.01.2028 -
Julien Duranville Olympique Lyonnais Aktiv 134 / 136 40% 1 01.01.2028 -
Hugo Duro Valencia Aktiv 150 / 139 40% 3 31.12.2027 -
Mohammed Kudus Tottenham Aktiv 162 / 155 40% 1 31.12.2027 -
Rômulo RB Leipzig Aktiv 150 / 143 40% 1 31.12.2027 -
David Valencia Alianza Petrolera Aktiv 126 / 128 40% 9 08.12.2027 -
Archie Gray Derby County Aktiv 152 / 149 40% 9 08.12.2027 -
Ayden Heaven Luton Town Aktiv 145 / 145 40% 16 08.12.2027 -
Olivier Mambwa Young Boys Aktiv 108 / 121 40% 6 05.12.2027 -
Dmitry Pestryakov Dinamo Moscow Aktiv 118 / 121 40% 2 05.12.2027 -
Sebastián Ramírez Jaguares Aktiv 106 / 110 40% 11 04.12.2027 -
Matteo Pérez Vinlöf Dinamo Zagreb Aktiv 128 / 133 40% 3 04.12.2027 -
Marc Bernal Real Sociedad Aktiv 148 / 155 40% 11 02.12.2027 -
Kevin Vazquez Cruz Azul Verhandlung 136 / 143 40% 16 30.11.2027 -
Celías Ingenthron Vélez Aktiv 118 / 127 40% 3 28.11.2027 -
Kauã Moraes Cruzeiro Aktiv 126 / 127 40% 4 28.11.2027 -
Bahia Criciuma Aktiv 116 / 126 40% 4 28.11.2027 -
Josh King Chelsea Aktiv 141 / 148 40% 4 27.11.2027 -
Mads Bomholt Stabaek Aktiv 113 / 119 40% 10 27.11.2027 -
Josh Nichols Tranmere Rovers Aktiv 118 / 127 40% 2 27.11.2027 -
Christos Mouzakitis Hull City Aktiv 138 / 143 40% 13 25.11.2027 -
Luis Otávio Colorado Rapids Aktiv 114 / 109 40% 4 24.11.2027 -
Iván Leszczuk FC Augsburg Aktiv 111 / 111 30% 1 / 1m 24.11.2027 -
Alejandro Almaraz Nueva Chicago Aktiv 106 / 121 40% 1 24.11.2027 -
Noahkai Banks Hamburger SV Aktiv 138 / 138 40% 5 21.11.2027 -
Fodé Sylla Sion Aktiv 118 / 121 40% 6 20.11.2027 -
Trey Nyoni Rotherham United Aktiv 135 / 137 40% 2 17.11.2027 -
Juan Morán Godoy Cruz Aktiv 109 / 117 40% 3 11.11.2027 -
Héctor Fort Real Sociedad Aktiv 140 / 146 40% 4 11.11.2027 -
Juma Bah Manchester City Aktiv 130 / 133 40% 8 07.11.2027 -
Giovanni Leoni Bradford City Aktiv 142 / 145 40% 6 06.11.2027 -
Julián Bazán Philadelphia Union Aktiv 112 / 111 40% 2 26.10.2027 -
Lewis Miley Chelsea Aktiv 150 / 157 40% 3 26.10.2027 -
Caleb Yirenkyi Coventry City Aktiv 143 / 144 40% 3 24.10.2027 -
Bung Meng Freimann Luzern Aktiv 110 / 122 40% 2 24.10.2027 -
Jorge Salinas Racing Santander Aktiv 129 / 140 40% 2 18.10.2027 -
Jens Hjertø-Dahl Hull City Aktiv 127 / 131 40% 4 09.10.2027 -
Halam Loboa Tijuana Aktiv 120 / 133 40% 1 07.10.2027 -
Kosta Nedeljković Aston Villa Aktiv 135 / 141 40% 5 05.10.2027 -
Jaydee Canvot AJ Auxerre Aktiv 139 / 142 40% 1 04.10.2027 -
Teo Rodríguez Pagano River Plate Aktiv 119 / 120 40% 3 03.10.2027 -
Bence Dárdai VfL Wolfsburg Aktiv 140 / 149 40% 2 27.09.2027 -
Eliás Montiel Werder Bremen Aktiv 132 / 141 40% 2 21.09.2027 -
Dejan Radonjić SV Ried Aktiv 121 / 124 40% 3 18.09.2027 -
Agustín Obregón River Plate Aktiv 113 / 115 40% 1 16.09.2027 -
Mbekezeli Mbokazi Chicago Fire Aktiv 131 / 140 40% 5 12.09.2027 -
Johan Manzambi Newcastle United Aktiv 145 / 150 40% 2 06.09.2027 -
Nazareno Roselli Defensa y Justicia Aktiv 114 / 115 40% 1 04.09.2027 -
Jonas Harder Basel Aktiv 113 / 127 40% 3 02.09.2027 -
Ismail Al Suwaidi Al Fujairah Aktiv 133 / 142 40% 1 31.08.2027 -
Yusi Alavés Aktiv 133 / 134 40% 4 30.08.2027 -
Jobe Bellingham Köln Aktiv 144 / 149 40% 7 21.08.2027 -
Nevot Ratner Maccabi Haifa Aktiv 112 / 127 40% 1 21.08.2027 -
Tobias Slotsager Casertana Aktiv 115 / 117 40% 1 17.08.2027 -
Matías Gómez Granada Aktiv 119 / 126 40% 3 16.08.2027 -
Leonardo Mendicino Bari Aktiv 116 / 123 40% 1 16.08.2027 -
Darryl Bakola Padova Aktiv 112 / 127 40% 2 15.08.2027 -
Sascha Britschgi Padova Aktiv 122 / 127 40% 1 15.08.2027 -
Davide Bartesaghi AC Milan Aktiv 139 / 135 40% 2 13.08.2027 -
Arjan Malić Sturm Graz Aktiv 118 / 128 40% 1 11.08.2027 -
João Simões Sporting CP Aktiv 139 / 137 40% 2 08.08.2027 -
Kees Smit AZ Aktiv 141 / 148 40% 2 08.08.2027 -
Juan Giménez Celta Aktiv 120 / 132 40% 2 06.08.2027 -
Izan Merino Málaga Aktiv 128 / 125 40% 3 05.08.2027 -
Jan Bürger Gillingham Aktiv 118 / 119 40% 2 05.08.2027 -
Toni Tamarit Alverca Aktiv 122 / 121 40% 1 05.08.2027 -
Daniel Kelly Oxford United Aktiv 113 / 126 40% 1 01.08.2027 -
Givairo Read Feyenoord Aktiv 147 / 147 40% 1 29.07.2027 -
Bart Verbruggen Tottenham Aktiv 157 / 157 40% 1 26.07.2027 -
Josh Keeley Tigres Aktiv 129 / 134 40% 1 26.07.2027 -
Michael Cooper Sheffield United Aktiv 136 / 131 40% 1 21.07.2027 -
George Wickens Lincoln City Aktiv 120 / 127 40% 1 21.07.2027 -
Christ Inao Oulaï Fiorentina Aktiv 135 / 140 40% 1 20.07.2027 -
Jorrel Hato Chelsea Aktiv 149 / 150 40% 2 16.06.2027 -
Ernie Weaver AFC Wimbledon Aktiv 109 / 119 40% 1 01.06.2027 -
William Gomes Porto Aktiv 145 / 142 40% 8 30.05.2027 -
Cyriaque Irié VfL Wolfsburg Aktiv 123 / 131 40% 3 30.05.2027 -
Jan Virgili Club Brugge Aktiv 131 / 134 40% 4 30.05.2027 -
Olívio Tomé Benfica Aktiv 113 / 119 40% 4 28.05.2027 -
Shea Lacey Wolverhampton Aktiv 122 / 126 40% 3 28.05.2027 -
Leo Castledine Middlesbrough Aktiv 129 / 132 40% 3 28.05.2027 -
Endrick Real Madrid Aktiv 152 / 156 40% 2 24.05.2027 -
Lander Astiazarán Real Sociedad Aktiv 103 / 113 40% 2 22.05.2027 -
Othmane Maamma Watford Aktiv 125 / 127 40% 4 22.05.2027 -
Pablo García Racing Santander Aktiv 128 / 136 40% 4 20.05.2027 -
Can Uzun Eintracht Frankfurt Aktiv 139 / 150 40% 4 20.05.2027 -
Jesús Rodríguez Como Aktiv 142 / 152 40% 4 19.05.2027 -
Jayden Addai Como Aktiv 132 / 138 40% 4 13.05.2027 -
Assane Diao Lazio Aktiv 147 / 150 40% 3 13.05.2027 -
Yan Diomandé Real Madrid Aktiv 154 / 164 40% 4 12.05.2027 -
Ethan Williams Peterborough United Aktiv 112 / 122 40% 2 24.04.2027 -
Oscar Schwartau Norwich City Aktiv 123 / 126 40% 1 20.04.2027 -
Jonás Luna Santa Clara Aktiv 118 / 119 40% 3 18.04.2027 -
Matheus Gonçalves Al-Ahli Aktiv 126 / 134 40% 1 14.04.2027 -
Senny Mayulu Paris Saint-Germain Aktiv 144 / 153 40% 1 12.04.2027 -
David Mella Deportivo La Coruña Aktiv 131 / 136 40% 1 11.04.2027 -
Luís Guilherme Sporting CP Aktiv 132 / 134 40% 1 09.04.2027 -
Ez Abde Girona Aktiv 147 / 145 40% 9 18.01.2027 -
Thiago Brentford Aktiv 151 / 145 40% 4 18.01.2027 -
Karim Adeyemi Barcelona Aktiv 151 / 158 40% 1 18.01.2027 -
Adnan Courtois KV Oostende Aktiv 139 / 136 40% 2 01.01.2027 -
Andrés Martín Racing Santander Aktiv 137 / 132 40% 3 01.01.2027 -
Giacomo Raspadori Atalanta Aktiv 149 / 147 40% 3 01.01.2027 -
Marvin Keller Bayer Leverkusen Verhandlung 136 / 137 67% 1 01.01.2027 Befürworten
Moritz Nicolas Borussia Mönchengladbach Aktiv 139 / 137 40% 1 31.12.2026 -
Erick Reyes Toluca Aktiv 142 / 149 40% 1 31.12.2026 -
José Manuel López Palmeiras Aktiv 140 / 129 40% 2 29.12.2026 -
Matheus Cunha Manchester United Aktiv 160 / 152 40% 5 28.12.2026 -
Jonathan Dubasin Osasuna Aktiv 143 / 147 40% 4 28.12.2026 -
Georges Mikautadze Villarreal Aktiv 155 / 153 40% 7 27.12.2026 -
Dango Ouattara Brentford Aktiv 143 / 142 40% 2 27.12.2026 -
Georginio Rutter Brighton Aktiv 147 / 144 40% 5 24.12.2026 -
Ousmane Dembélé Paris Saint-Germain Aktiv 183 / 187 40% 4 24.12.2026 -
Tammy Abraham Aston Villa Aktiv 139 / 135 40% 7 23.12.2026 -
Jorge De Frutos Rayo Vallecano Aktiv 151 / 149 40% 3 23.12.2026 -
Cody Gakpo Liverpool Aktiv 160 / 159 40% 7 22.12.2026 -
Morgan Rogers Chelsea Aktiv 159 / 159 40% 2 22.12.2026 -
Tim Kleindienst Borussia Mönchengladbach Aktiv 149 / 157 40% 3 21.12.2026 -
Haris Tabaković Red Bull Salzburg Aktiv 140 / 129 40% 7 21.12.2026 -
Ademola Lookman Atlético Madrid Aktiv 164 / 155 40% 5 20.12.2026 -
Mikel Oyarzábal Real Sociedad Aktiv 160 / 158 40% 3 20.12.2026 -
Gabriel Jesus Barcelona Aktiv 157 / 156 40% 10 19.12.2026 -
Karim Konaté Red Bull Salzburg Aktiv 136 / 141 40% 4 19.12.2026 -
João Pedro Chelsea Aktiv 155 / 156 40% 4 19.12.2026 -
Gabriel Martinelli Brighton Aktiv 163 / 159 40% 10 18.12.2026 -
Diego Rossi Monterrey Aktiv 133 / 124 40% 1 18.12.2026 -
Jarrod Bowen West Ham United Aktiv 156 / 152 40% 3 17.12.2026 -
Taty Castellanos West Ham United Aktiv 144 / 144 40% 1 16.12.2026 -
Nicolas Jackson Aston Villa Aktiv 147 / 151 40% 6 15.12.2026 -
Marcus Rashford Manchester United Aktiv 161 / 162 40% 2 13.12.2026 -
Alejandro Grimaldo Atlético Madrid Aktiv 164 / 160 40% 2 12.12.2026 -
Oihan Sancet Athletic Bilbao Aktiv 159 / 152 40% 2 12.12.2026 -
Kai Havertz Arsenal Aktiv 161 / 159 40% 3 07.12.2026 -
Moussa Diaby Bayer Leverkusen Aktiv 146 / 152 40% 2 04.12.2026 -
Khvicha Kvaratskhelia Paris Saint-Germain Aktiv 169 / 167 40% 2 04.12.2026 -
Serhou Guirassy Borussia Dortmund Aktiv 169 / 170 40% 9 02.12.2026 -
Iliman N'Diaye Everton Aktiv 161 / 154 40% 3 30.11.2026 -
Javi Puado Espanyol Aktiv 147 / 140 40% 1 30.11.2026 -
Álex Berenguer Athletic Bilbao Aktiv 155 / 155 40% 2 29.11.2026 -
Álex Baena Atlético Madrid Aktiv 162 / 158 40% 2 29.11.2026 -
Carlos Vicente Birmingham Aktiv 145 / 144 40% 1 29.11.2026 -
Borja Mayoral Getafe Aktiv 144 / 143 40% 1 27.11.2026 -
Mason Mount Manchester United Aktiv 150 / 146 40% 1 27.11.2026 -
Alexis Mac Allister Liverpool Aktiv 162 / 160 40% 1 27.11.2026 -
Hugo Álvarez Celta Aktiv 141 / 143 40% 1 27.11.2026 -
Pedri Barcelona Aktiv 177 / 176 40% 2 24.11.2026 -
Kiernan Dewsbury-Hall Everton Aktiv 148 / 150 40% 1 24.11.2026 -
Takefusa Kubo Real Sociedad Aktiv 152 / 154 40% 1 17.11.2026 -
Iñaki Williams Athletic Bilbao Aktiv 157 / 158 40% 2 14.11.2026 -
Bradley Barcola Liverpool Aktiv 161 / 156 40% 3 12.11.2026 -
Ángel Correa River Plate Aktiv 143 / 144 40% 3 07.11.2026 -
Rémi Lemoine Chamois Niortais Aktiv 156 / 164 40% 1 05.11.2026 -
Martin Ødegaard Arsenal Aktiv 177 / 172 40% 6 04.11.2026 -
Johnny Cardoso Atlético Madrid Aktiv 156 / 147 40% 3 04.11.2026 -
Paulinho Palmeiras Aktiv 141 / 141 40% 4 02.11.2026 -
Marco Asensio Fenerbahce Verloren 162 / 149 40% 1 02.11.2026 -
Pablo Fornals Betis Aktiv 148 / 151 40% 1 01.11.2026 -
Ferran Torres Paris Saint-Germain Aktiv 164 / 165 40% 1 29.10.2026 -
Paulo Dybala AS Roma Aktiv 150 / 151 40% 1 28.10.2026 -
Fábio Silva Borussia Dortmund Aktiv 144 / 143 40% 1 27.10.2026 -
Sandro Tonali Tottenham Aktiv 172 / 167 40% 3 26.10.2026 -
Breel Embolo Atlanta United FC Aktiv 134 / 143 40% 2 26.10.2026 -
Germán Valera Elche Aktiv 138 / 130 40% 1 24.10.2026 -
Gonzalo Fulham Aktiv 143 / 145 40% 1 23.10.2026 -
Barış Alper Yılmaz Galatasaray Aktiv 148 / 152 40% 1 18.10.2026 -
Joshua Kimmich Bayern Munich Aktiv 176 / 180 40% 1 14.10.2026 -
Leroy Sané Galatasaray Aktiv 152 / 154 40% 1 14.10.2026 -
James Maddison Tottenham Aktiv 157 / 151 40% 1 14.10.2026 -
Kang-In Lee Atlético Madrid Aktiv 158 / 162 40% 1 11.10.2026 -
Matt O'Riley Brighton Aktiv 145 / 145 40% 1 11.10.2026 -
Dani Olmo Barcelona Aktiv 161 / 164 40% 3 08.10.2026 -
Julián Álvarez Atlético Madrid Aktiv 168 / 176 40% 5 08.10.2026 -
Romelu Castagne KV Oostende Aktiv 138 / 138 40% 1 08.10.2026 -
Maximilian Beier Borussia Dortmund Aktiv 152 / 145 40% 3 07.10.2026 -
Rayan Cherki Manchester City Aktiv 162 / 167 40% 4 02.10.2026 -
Aurélien Tchouaméni Real Madrid Aktiv 166 / 171 40% 2 30.09.2026 -
Felix Nmecha Borussia Dortmund Aktiv 158 / 155 40% 1 30.09.2026 -
Dominik Szoboszlai Liverpool Aktiv 165 / 163 40% 2 28.09.2026 -
Jérémy Doku Manchester City Aktiv 164 / 160 40% 2 26.09.2026 -
Cole Palmer Chelsea Aktiv 170 / 171 40% 1 26.09.2026 -
Bruno Guimarães Arsenal Aktiv 170 / 170 40% 1 26.09.2026 -
Antoine Semenyo Manchester City Aktiv 154 / 151 40% 2 22.09.2026 -
Rodrygo Real Madrid Aktiv 167 / 166 40% 3 21.09.2026 -
Jean-Philippe Mateta Crystal Palace Aktiv 152 / 152 40% 1 17.09.2026 -
Viktor Gyökeres Arsenal Aktiv 153 / 155 40% 4 16.09.2026 -
Florian Wirtz Liverpool Aktiv 169 / 173 40% 1 13.09.2026 -
Jeremie Frimpong Liverpool Aktiv 156 / 158 40% 1 08.09.2026 -
Ismael Saibari Bayern Munich Aktiv 150 / 145 40% 1 05.09.2026 -
Vinícius Júnior Arsenal Aktiv 175 / 175 40% 1 17.08.2026 -
Augusto Batalla Rayo Vallecano Aktiv 138 / 143 40% 1 02.08.2026 -
Robin Zentner Mainz 05 Aktiv 138 / 133 40% 1 02.08.2026 -